Terminal Aerodrome Forecast
Issued by NWS

Home | Current Version | Previous Version | Text Only | Print | Product List | Glossary On
Versions: 1 2 3 4 5 6 7 8 9 10 11 12 13 14 15 16 17
000
FTUS46 KSEW 311720
TAFPAE
TAF
KPAE 311720Z 3118/0118 18020G30KT P6SM SCT025 BKN050 OVC120
      TEMPO 3120/3124 -RA BKN025 OVC050
     FM010000 20015G25KT P6SM -SHRA SCT020 BKN040 BKN080
     FM011000 20012KT P6SM -RA BKN020 OVC040=

USA.gov is the U.S. government's official web portal to all federal, state and local government web resources and services.